San Saba, Texas
Current Conditions -  °F | °C
As of 11:30 AM on Thursday 30 Oct 2014 (Local Time) from KAQO Reporting Station
Overcast Overcast  
Wind Chill: 70°   Ceiling: 1200
Heat Index: 70°   Visibility: 10mi
Dew Point: 63°   Wind: 5mph
Humidity: 78%   Direction: 150°SSE
Pressure: 30.2"   Gusts: NA
Location:  31.2°N, 98.72°W
Report Text: KAQO 301630Z AUTO 15004KT 10SM OVC012 21/17 A3020 RMK AO2
Loading
Personal Weather Stations






























Interactive Weather Map
Tropical Storm Tracking
New forecast layout! Learn more

10-Day Weather Forecast

Advertisements
Track Severe Weather on mobile